Decoded Metar for KVTA (NEWARK in OH, USA) (IATA:VTA) | Meteo·Mobile Aviation Weather
aviador You're here:

KVTA Decoded Metar

NEWARK in OH, USA
Report Time2019-04-24 13:54:00
UTC Time2019-04-24 14:24:38
Flight Rules vfr VFR
WindCalm
Visibility9999 m
Phenomena:N/A
Clouds:N/A
Expected CloudBase > 2,800 ft AGL from Temp-Dew spread
CeilingNone
Temp12°C (ISA -1)
Dew Point05°C (63% RH)
AAT10.9°C
QNH1017 hPa
Density Alt719 ft
Elevation879 ft
Report Wrong Elevation
Raw Report
KVTA 241354Z AUTO 00000KT 10SM CLR 12/05 A3002 RMK AO2 SLP166
T01220050=

Extra information for KVTA:More info

Metar Taf Metar & Taf Last 4 Metars F.Rules Stats Wind Profile Meteogram Temp Stats Airport Information Weather charts Add Link Nearby VenuesMetar ALERT Operation Metar Decoded Social comments

AIRNAV info for KVTA